createdAt,value
2022-11-23T00:00:04.498Z,87.08
2022-11-23T00:02:35.912Z,87.08
2022-11-23T00:05:08.681Z,87.05
2022-11-23T00:07:39.646Z,86.94
2022-11-23T00:10:11.517Z,86.83
2022-11-23T00:12:42.437Z,86.96
2022-11-23T00:15:15.753Z,86.98
2022-11-23T00:17:48.380Z,87.11
2022-11-23T00:20:19.626Z,87.00
2022-11-23T00:22:50.611Z,86.86
2022-11-23T00:25:21.567Z,86.76
2022-11-23T00:27:52.253Z,86.81
2022-11-23T00:30:23.262Z,87.09
2022-11-23T00:32:55.219Z,87.31
2022-11-23T00:35:26.137Z,87.10
2022-11-23T00:37:57.118Z,87.04
2022-11-23T00:40:28.055Z,87.08
2022-11-23T00:42:58.899Z,87.08
2022-11-23T00:45:29.979Z,87.01
2022-11-23T00:48:00.752Z,87.01
2022-11-23T00:50:31.603Z,86.97
2022-11-23T00:53:02.434Z,87.20
2022-11-23T00:55:33.563Z,87.15
2022-11-23T00:58:03.403Z,87.37
2022-11-23T01:00:34.346Z,87.24
2022-11-23T01:03:05.629Z,87.44
2022-11-23T01:05:39.943Z,87.47
2022-11-23T01:08:11.187Z,87.37
2022-11-23T01:10:42.099Z,87.25
2022-11-23T01:13:12.928Z,87.22
2022-11-23T01:15:51.591Z,87.41
2022-11-23T01:18:23.551Z,87.34
2022-11-23T01:20:54.598Z,87.17
2022-11-23T01:23:25.824Z,87.44
2022-11-23T01:25:57.067Z,87.61
2022-11-23T01:28:28.178Z,87.58
2022-11-23T01:31:06.855Z,87.60
2022-11-23T01:33:38.982Z,87.67
2022-11-23T01:36:15.339Z,87.71
2022-11-23T01:38:47.927Z,87.73
2022-11-23T01:41:21.907Z,87.65
2022-11-23T01:43:53.382Z,87.62
2022-11-23T01:46:24.658Z,87.56
2022-11-23T01:48:59.193Z,87.47
2022-11-23T01:51:33.455Z,87.51
2022-11-23T01:54:10.407Z,87.66
2022-11-23T01:56:43.650Z,87.95
2022-11-23T01:59:18.128Z,87.87
2022-11-23T02:01:49.555Z,87.86
2022-11-23T02:04:24.695Z,87.97
2022-11-23T02:06:56.320Z,88.08
2022-11-23T02:09:27.408Z,88.05
2022-11-23T02:11:58.519Z,88.11
2022-11-23T02:14:30.113Z,88.05
2022-11-23T02:17:02.449Z,88.01
2022-11-23T02:19:42.004Z,88.00
2022-11-23T02:22:34.754Z,88.10
2022-11-23T02:25:11.780Z,88.25
2022-11-23T02:27:46.976Z,87.97
2022-11-23T02:30:18.821Z,88.10
2022-11-23T02:32:50.357Z,88.02
2022-11-23T02:35:21.243Z,88.02
2022-11-23T02:37:53.552Z,87.92
2022-11-23T02:40:29.636Z,88.04
2022-11-23T02:45:54.272Z,88.01
2022-11-23T02:48:25.405Z,88.01
2022-11-23T02:50:56.679Z,88.18
2022-11-23T02:53:27.464Z,88.07
2022-11-23T02:55:58.419Z,88.04
2022-11-23T02:58:29.349Z,87.94
2022-11-23T03:01:00.383Z,87.88
2022-11-23T03:03:31.487Z,87.93
2022-11-23T03:06:02.610Z,88.08
2022-11-23T03:08:33.623Z,87.96
2022-11-23T03:11:04.939Z,88.18
2022-11-23T03:13:34.806Z,88.11
2022-11-23T03:16:06.066Z,88.20
2022-11-23T03:18:35.870Z,88.23
2022-11-23T03:21:08.841Z,88.27
2022-11-23T03:23:39.765Z,88.09
2022-11-23T03:26:13.092Z,88.12
2022-11-23T03:28:44.427Z,88.10
2022-11-23T03:31:15.297Z,88.13
2022-11-23T03:33:46.486Z,88.13
2022-11-23T03:36:17.464Z,88.06
2022-11-23T03:38:48.717Z,88.12
2022-11-23T03:41:19.690Z,88.17
2022-11-23T03:43:50.709Z,88.11
2022-11-23T03:46:21.755Z,88.15
2022-11-23T03:48:52.630Z,87.95
2022-11-23T03:51:23.583Z,88.11
2022-11-23T03:53:54.743Z,88.06
2022-11-23T03:56:24.834Z,88.21
2022-11-23T03:58:56.113Z,88.10
2022-11-23T04:01:25.997Z,88.17
2022-11-23T04:03:55.965Z,88.18
2022-11-23T04:06:27.202Z,88.10
2022-11-23T04:09:01.977Z,88.25
2022-11-23T04:11:33.263Z,88.18
2022-11-23T04:14:04.466Z,88.17
2022-11-23T04:16:35.231Z,88.03
2022-11-23T04:19:06.303Z,88.05
2022-11-23T04:21:37.149Z,87.98
2022-11-23T04:24:08.916Z,87.90
2022-11-23T04:26:40.574Z,88.04
2022-11-23T04:29:11.840Z,88.08
2022-11-23T04:31:42.924Z,88.01
2022-11-23T04:34:12.561Z,87.98
2022-11-23T04:36:43.723Z,88.15
2022-11-23T04:39:15.078Z,88.19
2022-11-23T04:41:44.428Z,88.00
2022-11-23T04:44:15.517Z,88.14
2022-11-23T04:46:46.442Z,88.00
2022-11-23T04:49:17.793Z,88.14
2022-11-23T04:51:49.377Z,88.00
2022-11-23T04:54:20.490Z,87.88
2022-11-23T04:56:51.572Z,87.97
2022-11-23T04:59:23.276Z,88.08
2022-11-23T05:01:54.471Z,87.98
2022-11-23T05:04:25.607Z,87.82
2022-11-23T05:06:56.817Z,87.83
2022-11-23T05:09:27.817Z,87.86
2022-11-23T05:11:59.170Z,87.92
2022-11-23T05:14:30.290Z,88.05
2022-11-23T05:17:01.178Z,87.89
2022-11-23T05:19:32.522Z,87.94
2022-11-23T05:22:03.798Z,88.06
2022-11-23T05:24:35.131Z,87.92
2022-11-23T05:27:06.442Z,87.93
2022-11-23T05:29:37.731Z,87.94
2022-11-23T05:32:08.835Z,87.89
2022-11-23T05:34:38.374Z,87.89
2022-11-23T05:37:09.330Z,88.03
2022-11-23T05:39:40.220Z,88.11
2022-11-23T05:42:10.912Z,88.21
2022-11-23T05:44:41.774Z,88.19
2022-11-23T05:47:13.182Z,88.27
2022-11-23T05:49:44.113Z,88.18
2022-11-23T05:52:15.115Z,88.08
2022-11-23T05:54:46.132Z,88.06
2022-11-23T05:57:17.839Z,88.20
2022-11-23T05:59:49.310Z,88.17
2022-11-23T06:02:20.330Z,88.01
2022-11-23T06:04:51.393Z,88.04
2022-11-23T06:07:22.305Z,88.05
2022-11-23T06:09:53.370Z,88.26
2022-11-23T06:12:24.431Z,88.19
2022-11-23T06:14:55.411Z,88.24
2022-11-23T06:17:26.700Z,88.31
2022-11-23T06:19:57.844Z,88.33
2022-11-23T06:22:28.838Z,88.07
2022-11-23T06:24:59.614Z,88.18
2022-11-23T06:27:30.681Z,88.36
2022-11-23T06:30:01.702Z,88.18
2022-11-23T06:32:32.840Z,88.04
2022-11-23T06:35:03.883Z,88.08
2022-11-23T06:37:34.884Z,88.12
2022-11-23T06:40:06.598Z,87.92
2022-11-23T06:42:40.164Z,88.06
2022-11-23T06:45:12.674Z,88.10
2022-11-23T06:47:43.938Z,88.29
2022-11-23T06:50:15.722Z,88.15
2022-11-23T06:52:46.793Z,88.13
2022-11-23T06:55:18.163Z,88.03
2022-11-23T06:57:47.681Z,88.13
2022-11-23T07:00:20.889Z,88.42
2022-11-23T07:02:56.131Z,88.46
2022-11-23T07:05:31.750Z,88.47
2022-11-23T07:08:02.706Z,88.35
2022-11-23T07:10:34.191Z,88.65
2022-11-23T07:13:18.254Z,88.59
2022-11-23T07:15:49.130Z,88.53
2022-11-23T07:18:21.147Z,88.46
2022-11-23T07:20:53.284Z,88.53
2022-11-23T07:23:24.170Z,88.61
2022-11-23T07:25:55.140Z,88.72
2022-11-23T07:28:25.878Z,88.78
2022-11-23T07:30:57.077Z,88.71
2022-11-23T07:33:27.853Z,88.68
2022-11-23T07:36:01.766Z,88.85
2022-11-23T07:38:33.519Z,88.91
2022-11-23T07:41:04.936Z,88.84
2022-11-23T07:43:35.881Z,88.78
2022-11-23T07:46:07.413Z,88.71
2022-11-23T07:48:38.255Z,88.59
2022-11-23T07:51:09.510Z,88.50
2022-11-23T07:53:40.499Z,88.57
2022-11-23T07:56:12.235Z,88.70
2022-11-23T07:58:42.978Z,88.65
2022-11-23T08:01:18.451Z,88.66
2022-11-23T08:03:50.395Z,88.65
2022-11-23T08:06:21.378Z,88.59
2022-11-23T08:08:52.542Z,88.58
2022-11-23T08:11:24.126Z,88.57
2022-11-23T08:13:55.136Z,88.63
2022-11-23T08:16:26.105Z,88.60
2022-11-23T08:18:57.177Z,88.49
2022-11-23T08:21:28.297Z,88.46
2022-11-23T08:23:59.442Z,88.55
2022-11-23T08:26:30.470Z,88.33
2022-11-23T08:29:01.375Z,88.40
2022-11-23T08:31:32.472Z,88.43
2022-11-23T08:34:03.912Z,88.45
2022-11-23T08:36:35.341Z,88.39
2022-11-23T08:39:06.356Z,88.53
2022-11-23T08:41:37.566Z,88.30
2022-11-23T08:44:11.119Z,88.37
2022-11-23T08:46:42.377Z,88.34
2022-11-23T08:49:13.671Z,88.25
2022-11-23T08:51:49.836Z,88.32
2022-11-23T08:54:23.435Z,88.13
2022-11-23T08:56:54.301Z,88.10
2022-11-23T08:59:25.231Z,87.94
2022-11-23T09:01:56.077Z,87.86
2022-11-23T09:04:29.514Z,87.82
2022-11-23T09:07:00.334Z,88.01
2022-11-23T09:09:31.351Z,88.02
2022-11-23T09:12:02.203Z,87.98
2022-11-23T09:14:33.888Z,87.82
2022-11-23T09:17:05.543Z,87.70
2022-11-23T09:19:36.939Z,87.50
2022-11-23T09:22:07.841Z,87.33
2022-11-23T09:24:38.916Z,87.29
2022-11-23T09:27:10.042Z,87.47
2022-11-23T09:29:40.968Z,87.49
2022-11-23T09:32:11.950Z,87.29
2022-11-23T09:34:43.016Z,87.36
2022-11-23T09:37:13.843Z,87.33
2022-11-23T09:39:44.825Z,87.29
2022-11-23T09:42:34.716Z,87.45
2022-11-23T09:45:11.083Z,87.40
2022-11-23T09:47:56.575Z,87.25
2022-11-23T09:50:34.465Z,87.03
2022-11-23T09:53:13.294Z,87.04
2022-11-23T09:55:45.821Z,87.13
2022-11-23T09:58:19.891Z,86.69
2022-11-23T10:00:54.870Z,86.60
2022-11-23T10:03:25.895Z,86.61
2022-11-23T10:06:07.402Z,86.63
2022-11-23T10:08:48.078Z,86.68
2022-11-23T10:11:43.098Z,86.62
2022-11-23T10:14:35.216Z,86.42
2022-11-23T10:17:16.333Z,86.41
2022-11-23T10:20:09.185Z,86.14
2022-11-23T10:22:47.182Z,86.16
2022-11-23T10:25:20.073Z,86.12
2022-11-23T10:27:55.455Z,86.06
2022-11-23T10:30:26.649Z,86.02
2022-11-23T10:33:03.550Z,85.75
2022-11-23T10:35:38.370Z,85.70
2022-11-23T10:38:20.247Z,85.94
2022-11-23T10:41:02.450Z,85.94
2022-11-23T10:43:39.304Z,85.82
2022-11-23T10:46:31.143Z,85.72
2022-11-23T10:49:19.716Z,85.70
2022-11-23T10:51:57.351Z,85.68
2022-11-23T10:54:32.127Z,85.43
2022-11-23T10:57:05.040Z,84.73
2022-11-23T10:59:38.594Z,83.90
2022-11-23T11:02:21.705Z,83.69
2022-11-23T11:05:13.290Z,83.64
2022-11-23T11:07:44.620Z,83.40
2022-11-23T11:10:34.825Z,83.57
2022-11-23T11:13:04.301Z,83.67
2022-11-23T11:15:42.449Z,83.72
2022-11-23T11:18:20.918Z,83.66
2022-11-23T11:20:59.985Z,83.68
2022-11-23T11:23:32.915Z,83.45
2022-11-23T11:26:18.086Z,83.44
2022-11-23T11:28:51.569Z,83.56
2022-11-23T11:31:50.523Z,83.22
2022-11-23T11:34:26.922Z,83.20
2022-11-23T11:37:08.925Z,83.18
2022-11-23T11:39:45.505Z,83.32
2022-11-23T11:42:22.214Z,83.13
2022-11-23T11:44:56.113Z,82.70
2022-11-23T11:47:32.861Z,82.67
2022-11-23T11:50:16.724Z,82.70
2022-11-23T11:52:52.781Z,82.41
2022-11-23T11:55:27.617Z,82.34
2022-11-23T11:58:04.241Z,82.18
2022-11-23T12:00:43.537Z,82.04
2022-11-23T12:03:27.211Z,81.64
2022-11-23T12:06:05.270Z,80.82
2022-11-23T12:08:41.786Z,80.79
2022-11-23T12:11:14.656Z,80.73
2022-11-23T12:13:47.983Z,80.94
2022-11-23T12:16:29.726Z,80.64
2022-11-23T12:19:15.655Z,80.29
2022-11-23T12:22:11.790Z,80.45
2022-11-23T12:25:03.385Z,80.05
2022-11-23T12:27:48.185Z,80.17
2022-11-23T12:30:32.102Z,80.50
2022-11-23T12:33:24.443Z,80.54
2022-11-23T12:36:10.658Z,80.43
2022-11-23T12:38:55.074Z,80.26
2022-11-23T12:41:37.931Z,80.52
2022-11-23T12:44:44.253Z,80.36
2022-11-23T12:47:27.535Z,80.52
2022-11-23T12:50:10.415Z,80.72
2022-11-23T12:52:56.646Z,80.92
2022-11-23T12:55:34.124Z,81.16
2022-11-23T12:58:13.069Z,81.56
2022-11-23T13:00:49.221Z,81.34
2022-11-23T13:03:47.864Z,81.43
2022-11-23T13:07:26.976Z,81.10
2022-11-23T13:10:13.254Z,81.27
2022-11-23T13:13:16.319Z,81.29
2022-11-23T13:16:02.769Z,81.45
2022-11-23T13:18:54.638Z,81.37
2022-11-23T13:21:36.043Z,81.30
2022-11-23T13:24:25.028Z,81.49
2022-11-23T13:27:31.268Z,81.19
2022-11-23T13:30:22.856Z,81.09
2022-11-23T13:33:28.609Z,81.41
2022-11-23T13:36:09.481Z,81.67
2022-11-23T13:38:48.414Z,81.86
2022-11-23T13:41:58.123Z,81.89
2022-11-23T13:44:32.543Z,81.81
2022-11-23T13:47:07.856Z,81.96
2022-11-23T13:49:43.758Z,81.91
2022-11-23T13:52:28.672Z,82.12
2022-11-23T13:55:23.492Z,82.03
2022-11-23T13:58:41.741Z,82.19
2022-11-23T14:01:34.064Z,82.13
2022-11-23T14:04:22.818Z,82.18
2022-11-23T14:06:59.152Z,82.18
2022-11-23T14:09:36.166Z,82.09
2022-11-23T14:12:29.917Z,82.04
2022-11-23T14:15:13.294Z,82.16
2022-11-23T14:18:13.021Z,82.00
2022-11-23T14:20:52.066Z,82.06
2022-11-23T14:23:59.146Z,82.04
2022-11-23T14:26:40.384Z,82.20
2022-11-23T14:29:27.822Z,82.09
2022-11-23T14:32:16.271Z,81.92
2022-11-23T14:34:57.146Z,82.10
2022-11-23T14:37:42.447Z,82.18
2022-11-23T14:40:24.850Z,82.24
2022-11-23T14:42:57.885Z,82.20
2022-11-23T14:45:32.703Z,82.22
2022-11-23T14:48:23.377Z,82.25
2022-11-23T14:51:02.239Z,82.23
2022-11-23T14:53:36.828Z,82.34
2022-11-23T14:56:20.483Z,82.60
2022-11-23T14:58:52.205Z,82.72
2022-11-23T15:01:28.298Z,82.93
2022-11-23T15:04:00.723Z,83.07
2022-11-23T15:06:42.362Z,83.26
2022-11-23T15:09:24.964Z,83.19
2022-11-23T15:12:08.971Z,83.23
2022-11-23T15:14:45.886Z,83.22
2022-11-23T15:17:18.881Z,83.22
2022-11-23T15:19:57.568Z,83.09
2022-11-23T15:22:31.263Z,83.09
2022-11-23T15:25:12.849Z,83.11
2022-11-23T15:27:43.918Z,83.05
2022-11-23T15:30:17.743Z,82.99
2022-11-23T15:32:58.157Z,83.16
2022-11-23T15:35:34.050Z,83.17
2022-11-23T15:38:07.879Z,83.26
2022-11-23T15:40:42.300Z,83.11
2022-11-23T15:43:16.704Z,83.20
2022-11-23T15:46:12.966Z,83.22
2022-11-23T15:48:43.893Z,83.25
2022-11-23T15:51:27.921Z,83.41
2022-11-23T15:54:01.549Z,83.34
2022-11-23T15:56:34.592Z,83.50
2022-11-23T15:59:18.741Z,83.57
2022-11-23T16:01:50.197Z,83.85
2022-11-23T16:04:30.795Z,84.02
2022-11-23T16:07:16.859Z,84.13
2022-11-23T16:09:52.353Z,84.31
2022-11-23T16:12:29.794Z,84.31
2022-11-23T16:15:22.712Z,84.27
2022-11-23T16:17:53.578Z,84.18
2022-11-23T16:20:26.000Z,84.07
2022-11-23T16:23:00.196Z,84.25
2022-11-23T16:25:34.303Z,84.08
2022-11-23T16:28:07.146Z,84.08
2022-11-23T16:30:40.862Z,84.17
2022-11-23T16:33:16.716Z,84.21
2022-11-23T16:35:48.606Z,84.19
2022-11-23T16:38:20.019Z,84.32
2022-11-23T16:40:51.634Z,84.01
2022-11-23T16:43:22.551Z,84.01
2022-11-23T16:45:53.848Z,84.01
2022-11-23T16:48:42.079Z,84.03
2022-11-23T16:51:14.663Z,84.00
2022-11-23T16:54:12.535Z,83.76
2022-11-23T16:56:39.780Z,83.71
2022-11-23T16:59:15.750Z,83.91
2022-11-23T17:04:42.434Z,84.07
2022-11-23T17:07:13.391Z,83.91
2022-11-23T17:09:44.403Z,84.23
2022-11-23T17:12:18.364Z,84.23
2022-11-23T17:14:51.375Z,84.27
2022-11-23T17:17:24.016Z,84.32
2022-11-23T17:19:56.619Z,84.22
2022-11-23T17:22:30.715Z,84.23
2022-11-23T17:25:01.871Z,84.30
2022-11-23T17:27:36.705Z,84.41
2022-11-23T17:30:12.685Z,84.47
2022-11-23T17:32:43.849Z,84.45
2022-11-23T17:35:13.461Z,84.32
2022-11-23T17:37:44.894Z,84.42
2022-11-23T17:40:18.607Z,84.41
2022-11-23T17:42:49.759Z,84.34
2022-11-23T17:45:20.611Z,84.32
2022-11-23T17:47:51.681Z,84.44
2022-11-23T17:50:23.852Z,84.46
2022-11-23T17:52:55.307Z,84.29
2022-11-23T17:55:26.466Z,84.44
2022-11-23T17:57:57.381Z,84.73
2022-11-23T18:00:31.021Z,84.75
2022-11-23T18:03:02.746Z,84.48
2022-11-23T18:05:34.098Z,84.60
2022-11-23T18:08:05.146Z,84.78
2022-11-23T18:10:36.120Z,84.78
2022-11-23T18:13:07.088Z,84.71
2022-11-23T18:15:38.123Z,84.65
2022-11-23T18:18:09.107Z,84.63
2022-11-23T18:20:40.249Z,84.65
2022-11-23T18:23:11.384Z,84.79
2022-11-23T18:25:42.427Z,84.64
2022-11-23T18:28:15.959Z,84.50
2022-11-23T18:30:48.064Z,84.50
2022-11-23T18:33:19.081Z,84.49
2022-11-23T18:35:50.270Z,84.54
2022-11-23T18:38:21.633Z,84.57
2022-11-23T18:40:54.822Z,84.81
2022-11-23T18:43:26.016Z,84.76
2022-11-23T18:45:57.361Z,84.69
2022-11-23T18:48:31.087Z,84.93
2022-11-23T18:51:03.827Z,84.79
2022-11-23T18:53:35.458Z,84.95
2022-11-23T18:56:08.283Z,84.91
2022-11-23T18:58:41.000Z,84.83
2022-11-23T19:01:13.228Z,84.85
2022-11-23T19:03:45.628Z,84.95
2022-11-23T19:06:18.389Z,84.95
2022-11-23T19:08:50.943Z,84.75
2022-11-23T19:11:23.465Z,84.86
2022-11-23T19:13:56.587Z,85.00
2022-11-23T19:16:30.120Z,84.90
2022-11-23T19:19:03.113Z,85.04
2022-11-23T19:21:36.853Z,85.36
2022-11-23T19:24:10.123Z,85.40
2022-11-23T19:26:41.047Z,85.44
2022-11-23T19:29:12.066Z,85.34
2022-11-23T19:31:43.167Z,85.31
2022-11-23T19:34:14.710Z,85.28
2022-11-23T19:36:45.598Z,85.15
2022-11-23T19:39:16.643Z,85.07
2022-11-23T19:41:47.916Z,85.15
2022-11-23T19:44:19.232Z,85.08
2022-11-23T19:46:50.301Z,84.98
2022-11-23T19:49:21.450Z,84.83
2022-11-23T19:51:53.819Z,84.97
2022-11-23T19:54:24.754Z,85.06
2022-11-23T19:56:55.717Z,85.05
2022-11-23T19:59:27.881Z,85.10
2022-11-23T20:01:58.870Z,85.11
2022-11-23T20:04:30.427Z,85.06
2022-11-23T20:07:01.356Z,85.24
2022-11-23T20:09:33.015Z,85.18
2022-11-23T20:12:04.671Z,84.93
2022-11-23T20:14:35.522Z,84.95
2022-11-23T20:17:06.561Z,84.88
2022-11-23T20:19:37.503Z,85.02
2022-11-23T20:22:08.845Z,85.09
2022-11-23T20:24:38.547Z,84.97
2022-11-23T20:27:09.686Z,84.74
2022-11-23T20:29:41.313Z,84.68
2022-11-23T20:32:12.814Z,84.51
2022-11-23T20:34:42.165Z,84.61
2022-11-23T20:37:13.035Z,84.59
2022-11-23T20:39:43.958Z,84.73
2022-11-23T20:42:14.912Z,84.63
2022-11-23T20:44:45.813Z,84.72
2022-11-23T20:47:17.431Z,84.81
2022-11-23T20:49:48.470Z,84.76
2022-11-23T20:52:19.539Z,84.81
2022-11-23T20:54:51.067Z,84.85
2022-11-23T20:57:22.100Z,85.01
2022-11-23T20:59:53.316Z,84.51
2022-11-23T21:02:24.906Z,84.58
2022-11-23T21:04:55.815Z,84.40
2022-11-23T21:07:26.990Z,84.75
2022-11-23T21:09:57.955Z,84.76
2022-11-23T21:12:50.513Z,84.92
2022-11-23T21:15:22.140Z,84.92
2022-11-23T21:17:53.016Z,84.96
2022-11-23T21:20:23.963Z,84.90
2022-11-23T21:22:55.185Z,84.64
2022-11-23T21:25:25.965Z,84.86
2022-11-23T21:27:58.190Z,84.72
2022-11-23T21:30:29.155Z,84.75
2022-11-23T21:33:00.156Z,84.74
2022-11-23T21:35:31.136Z,85.00
2022-11-23T21:38:02.259Z,84.98
2022-11-23T21:40:33.626Z,84.82
2022-11-23T21:43:14.019Z,84.77
2022-11-23T21:45:44.855Z,84.66
2022-11-23T21:48:15.831Z,84.91
2022-11-23T21:50:46.960Z,84.64
2022-11-23T21:53:17.913Z,84.72
2022-11-23T21:55:49.123Z,84.68
2022-11-23T21:58:19.905Z,84.76
2022-11-23T22:00:51.122Z,85.07
2022-11-23T22:03:22.182Z,85.25
2022-11-23T22:05:59.323Z,85.28
2022-11-23T22:08:30.471Z,85.39
2022-11-23T22:11:01.651Z,85.48
2022-11-23T22:13:36.703Z,85.52
2022-11-23T22:16:20.129Z,85.65
2022-11-23T22:18:55.543Z,85.80
2022-11-23T22:21:28.554Z,85.65
2022-11-23T22:24:01.742Z,85.97
2022-11-23T22:26:33.210Z,86.10
2022-11-23T22:29:06.886Z,86.20
2022-11-23T22:31:38.329Z,86.22
2022-11-23T22:34:11.766Z,86.24
2022-11-23T22:36:43.323Z,86.05
2022-11-23T22:39:14.509Z,86.10
2022-11-23T22:41:45.585Z,86.28
2022-11-23T22:44:16.840Z,86.16
2022-11-23T22:46:48.328Z,86.29
2022-11-23T22:49:19.043Z,86.15
2022-11-23T22:51:50.383Z,86.22
2022-11-23T22:54:21.357Z,86.25
2022-11-23T22:56:52.495Z,86.21
2022-11-23T22:59:23.758Z,86.28
2022-11-23T23:01:55.353Z,86.18
2022-11-23T23:04:26.860Z,85.90
2022-11-23T23:06:58.125Z,86.04
2022-11-23T23:09:32.491Z,86.00
2022-11-23T23:12:03.886Z,85.94
2022-11-23T23:14:33.601Z,85.92
2022-11-23T23:17:04.935Z,85.78
2022-11-23T23:19:36.355Z,85.62
2022-11-23T23:22:07.790Z,85.70
2022-11-23T23:24:37.297Z,86.03
2022-11-23T23:27:08.382Z,86.19
2022-11-23T23:29:39.801Z,86.43
2022-11-23T23:32:10.977Z,86.37
2022-11-23T23:34:42.299Z,86.40
2022-11-23T23:37:14.879Z,86.48
2022-11-23T23:39:45.987Z,86.62
2022-11-23T23:42:18.440Z,86.64
2022-11-23T23:44:49.632Z,86.50
2022-11-23T23:47:20.896Z,86.41
2022-11-23T23:49:52.018Z,86.28
2022-11-23T23:52:23.114Z,86.35
2022-11-23T23:54:54.400Z,86.34
2022-11-23T23:57:25.475Z,86.32
2022-11-23T23:59:56.582Z,86.48
